createdAt,value
2022-11-22T00:04:03.654Z,10.90
2022-11-22T00:12:11.538Z,10.90
2022-11-22T00:20:17.946Z,10.90
2022-11-22T00:28:25.885Z,10.50
2022-11-22T00:36:31.236Z,10.50
2022-11-22T00:44:39.241Z,10.30
2022-11-22T00:52:44.506Z,10.30
2022-11-22T01:00:56.627Z,9.90
2022-11-22T01:09:02.324Z,10.10
2022-11-22T01:17:10.295Z,10.30
2022-11-22T01:25:15.702Z,10.20
2022-11-22T01:33:23.813Z,10.40
2022-11-22T01:41:29.277Z,10.40
2022-11-22T01:49:42.375Z,10.40
2022-11-22T01:57:49.361Z,10.40
2022-11-22T02:05:58.077Z,10.40
2022-11-22T02:14:03.374Z,10.30
2022-11-22T02:22:20.028Z,10.40
2022-11-22T02:30:28.476Z,10.40
2022-11-22T02:38:36.748Z,10.60
2022-11-22T02:46:53.665Z,10.10
2022-11-22T02:54:58.924Z,9.80
2022-11-22T03:03:07.105Z,9.90
2022-11-22T03:11:12.319Z,10.00
2022-11-22T03:19:20.534Z,10.00
2022-11-22T03:27:25.996Z,9.80
2022-11-22T03:35:33.831Z,9.90
2022-11-22T03:43:39.255Z,9.90
2022-11-22T03:51:47.245Z,9.90
2022-11-22T03:59:52.690Z,9.90
2022-11-22T04:08:00.700Z,9.80
2022-11-22T04:16:05.949Z,9.70
2022-11-22T04:24:27.414Z,9.70
2022-11-22T04:32:45.075Z,9.80
2022-11-22T04:40:53.358Z,9.60
2022-11-22T04:48:58.604Z,9.50
2022-11-22T04:57:06.560Z,9.30
2022-11-22T05:05:12.703Z,8.80
2022-11-22T05:13:20.721Z,8.70
2022-11-22T05:21:25.952Z,8.60
2022-11-22T05:29:33.987Z,8.70
2022-11-22T05:37:39.393Z,8.60
2022-11-22T05:45:47.269Z,8.20
2022-11-22T05:53:52.684Z,8.10
2022-11-22T06:02:00.584Z,8.00
2022-11-22T06:10:06.011Z,8.10
2022-11-22T06:18:13.914Z,8.20
2022-11-22T06:26:22.270Z,8.60
2022-11-22T06:34:30.134Z,8.80
2022-11-22T06:42:35.392Z,7.80
2022-11-22T06:50:43.348Z,7.40
2022-11-22T06:58:49.602Z,8.00
2022-11-22T07:06:57.476Z,8.50
2022-11-22T07:15:02.775Z,8.60
2022-11-22T07:23:12.665Z,9.30
2022-11-22T07:31:19.267Z,10.10
2022-11-22T07:39:27.390Z,10.20
2022-11-22T07:47:33.025Z,10.50
2022-11-22T07:55:40.991Z,11.00
2022-11-22T08:03:46.965Z,11.40
2022-11-22T08:11:54.890Z,14.40
2022-11-22T08:20:00.494Z,20.80
2022-11-22T08:28:08.564Z,22.20
2022-11-22T08:36:14.683Z,21.90
2022-11-22T08:44:22.673Z,24.00
2022-11-22T08:52:34.642Z,25.70
2022-11-22T09:00:43.079Z,23.40
2022-11-22T09:08:57.499Z,23.40
2022-11-22T09:17:18.247Z,25.10
2022-11-22T09:25:24.103Z,24.50
2022-11-22T09:33:32.632Z,25.00
2022-11-22T09:42:05.327Z,26.90
2022-11-22T09:50:21.817Z,29.20
2022-11-22T09:58:33.575Z,27.20
2022-11-22T10:06:43.825Z,20.40
2022-11-22T10:14:55.668Z,15.90
2022-11-22T10:23:04.900Z,14.70
2022-11-22T10:31:15.248Z,13.40
2022-11-22T10:39:45.419Z,12.10
2022-11-22T10:48:04.312Z,12.10
2022-11-22T10:56:18.587Z,11.90
2022-11-22T11:04:27.732Z,11.20
2022-11-22T11:12:44.145Z,11.20
2022-11-22T11:20:51.587Z,11.20
2022-11-22T11:29:37.429Z,11.40
2022-11-22T11:37:46.057Z,11.40
2022-11-22T11:45:51.875Z,12.00
2022-11-22T11:54:06.482Z,12.20
2022-11-22T12:02:16.431Z,12.40
2022-11-22T12:10:41.051Z,12.10
2022-11-22T12:18:53.242Z,12.40
2022-11-22T12:27:01.434Z,12.20
2022-11-22T12:35:15.400Z,12.40
2022-11-22T12:43:27.076Z,12.30
2022-11-22T12:51:42.986Z,12.20
2022-11-22T13:00:01.695Z,12.20
2022-11-22T13:08:18.200Z,12.20
2022-11-22T13:16:26.118Z,11.80
2022-11-22T13:24:41.262Z,11.60
2022-11-22T13:32:53.151Z,11.60
2022-11-22T13:40:58.584Z,11.70
2022-11-22T13:49:37.510Z,11.60
2022-11-22T13:57:45.589Z,11.60
2022-11-22T14:05:55.500Z,11.30
2022-11-22T14:14:09.763Z,10.70
2022-11-22T14:22:31.027Z,10.70
2022-11-22T14:30:43.516Z,10.40
2022-11-22T14:38:51.408Z,10.50
2022-11-22T14:47:00.796Z,10.50
2022-11-22T14:55:14.927Z,10.60
2022-11-22T15:03:44.443Z,10.40
2022-11-22T15:12:11.872Z,10.70
2022-11-22T16:03:25.517Z,10.10
2022-11-22T16:11:33.358Z,9.80
2022-11-22T16:19:41.321Z,9.70
2022-11-22T16:27:49.632Z,9.60
2022-11-22T16:36:01.915Z,9.80
2022-11-22T16:44:14.510Z,10.20
2022-11-22T16:52:22.455Z,10.50
2022-11-22T17:00:27.747Z,10.60
2022-11-22T17:08:35.882Z,10.70
2022-11-22T17:16:41.123Z,10.20
2022-11-22T17:24:49.036Z,10.80
2022-11-22T17:32:54.253Z,10.90
2022-11-22T17:41:04.650Z,10.70
2022-11-22T17:49:15.675Z,10.90
2022-11-22T17:57:24.364Z,10.90
2022-11-22T18:05:29.646Z,11.10
2022-11-22T18:13:40.107Z,11.10
2022-11-22T18:21:45.531Z,11.30
2022-11-22T18:29:53.566Z,11.10
2022-11-22T18:37:59.031Z,11.10
2022-11-22T18:46:08.564Z,11.10
2022-11-22T18:54:14.386Z,11.10
2022-11-22T19:02:25.899Z,11.20
2022-11-22T19:10:31.220Z,11.00
2022-11-22T19:18:43.083Z,11.20
2022-11-22T19:26:48.815Z,10.90
2022-11-22T19:34:56.847Z,11.20
2022-11-22T19:43:03.458Z,11.40
2022-11-22T19:51:13.802Z,11.50
2022-11-22T19:59:19.065Z,11.50
2022-11-22T20:07:27.374Z,11.30
2022-11-22T20:15:35.099Z,11.30
2022-11-22T20:23:45.691Z,11.20
2022-11-22T20:31:52.302Z,11.00
2022-11-22T20:40:00.194Z,11.20
2022-11-22T20:48:05.477Z,11.20
2022-11-22T20:56:14.175Z,11.10
2022-11-22T21:04:19.538Z,11.20
2022-11-22T21:12:27.686Z,11.10
2022-11-22T21:20:33.178Z,11.30
2022-11-22T21:28:41.267Z,11.40
2022-11-22T21:36:46.582Z,11.40
2022-11-22T21:44:54.443Z,11.30
2022-11-22T21:52:59.678Z,11.20
2022-11-22T22:01:13.625Z,11.40
2022-11-22T22:09:19.458Z,11.30
2022-11-22T22:17:27.325Z,11.50
2022-11-22T22:25:33.469Z,11.30
2022-11-22T22:33:43.345Z,11.10
2022-11-22T22:41:48.649Z,11.30
2022-11-22T22:49:56.552Z,11.30
2022-11-22T22:58:03.211Z,11.40
2022-11-22T23:06:15.234Z,11.50
2022-11-22T23:14:22.823Z,11.70
2022-11-22T23:22:33.106Z,11.20
2022-11-22T23:30:40.272Z,11.60
2022-11-22T23:38:48.622Z,11.50
2022-11-22T23:46:53.883Z,11.40
2022-11-22T23:55:01.781Z,10.70
